sensor_id;sensor_type;location;lat;lon;timestamp;P1;durP1;ratioP1;P2;durP2;ratioP2
14975;SDS011;7584;60.468;25.126;2023-04-25T00:00:20;2.70;;;1.50;;
14975;SDS011;7584;60.468;25.126;2023-04-25T00:02:45;2.70;;;1.30;;
14975;SDS011;7584;60.468;25.126;2023-04-25T00:05:11;1.80;;;1.27;;
14975;SDS011;7584;60.468;25.126;2023-04-25T00:07:36;1.40;;;1.30;;
14975;SDS011;7584;60.468;25.126;2023-04-25T00:10:02;1.87;;;1.40;;
14975;SDS011;7584;60.468;25.126;2023-04-25T00:12:27;3.50;;;1.57;;
14975;SDS011;7584;60.468;25.126;2023-04-25T00:14:55;1.70;;;1.60;;
14975;SDS011;7584;60.468;25.126;2023-04-25T00:17:24;5.77;;;1.70;;
14975;SDS011;7584;60.468;25.126;2023-04-25T00:19:50;2.87;;;1.40;;
14975;SDS011;7584;60.468;25.126;2023-04-25T00:22:15;2.07;;;1.50;;
14975;SDS011;7584;60.468;25.126;2023-04-25T00:24:41;1.50;;;1.40;;
14975;SDS011;7584;60.468;25.126;2023-04-25T00:27:06;2.73;;;1.53;;
14975;SDS011;7584;60.468;25.126;2023-04-25T00:29:32;1.60;;;1.50;;
14975;SDS011;7584;60.468;25.126;2023-04-25T00:31:57;1.73;;;1.60;;
14975;SDS011;7584;60.468;25.126;2023-04-25T00:34:22;2.50;;;1.50;;
14975;SDS011;7584;60.468;25.126;2023-04-25T00:36:47;2.80;;;1.30;;
14975;SDS011;7584;60.468;25.126;2023-04-25T00:39:13;1.70;;;1.53;;
14975;SDS011;7584;60.468;25.126;2023-04-25T00:41:38;3.53;;;1.40;;
14975;SDS011;7584;60.468;25.126;2023-04-25T00:44:04;1.63;;;1.40;;
14975;SDS011;7584;60.468;25.126;2023-04-25T00:46:31;2.03;;;1.40;;
14975;SDS011;7584;60.468;25.126;2023-04-25T00:48:57;4.03;;;1.27;;
14975;SDS011;7584;60.468;25.126;2023-04-25T00:51:22;1.70;;;1.57;;
14975;SDS011;7584;60.468;25.126;2023-04-25T00:53:51;3.00;;;1.30;;
14975;SDS011;7584;60.468;25.126;2023-04-25T00:56:16;3.47;;;1.53;;
14975;SDS011;7584;60.468;25.126;2023-04-25T00:58:42;2.83;;;1.57;;
14975;SDS011;7584;60.468;25.126;2023-04-25T01:01:08;3.43;;;1.60;;
14975;SDS011;7584;60.468;25.126;2023-04-25T01:03:34;1.40;;;1.30;;
14975;SDS011;7584;60.468;25.126;2023-04-25T01:06:05;2.07;;;1.47;;
14975;SDS011;7584;60.468;25.126;2023-04-25T01:08:31;1.90;;;1.60;;
14975;SDS011;7584;60.468;25.126;2023-04-25T01:10:56;1.70;;;1.60;;
14975;SDS011;7584;60.468;25.126;2023-04-25T01:13:21;2.63;;;1.33;;
14975;SDS011;7584;60.468;25.126;2023-04-25T01:15:47;1.60;;;1.40;;
14975;SDS011;7584;60.468;25.126;2023-04-25T01:18:12;2.20;;;1.40;;
14975;SDS011;7584;60.468;25.126;2023-04-25T01:20:38;1.43;;;1.33;;
14975;SDS011;7584;60.468;25.126;2023-04-25T01:23:03;3.03;;;1.83;;
14975;SDS011;7584;60.468;25.126;2023-04-25T01:25:29;2.07;;;1.30;;
14975;SDS011;7584;60.468;25.126;2023-04-25T01:27:55;2.03;;;1.70;;
14975;SDS011;7584;60.468;25.126;2023-04-25T01:30:20;3.17;;;1.70;;
14975;SDS011;7584;60.468;25.126;2023-04-25T01:32:46;2.00;;;1.60;;
14975;SDS011;7584;60.468;25.126;2023-04-25T01:35:12;1.60;;;1.50;;
14975;SDS011;7584;60.468;25.126;2023-04-25T01:37:37;2.70;;;1.70;;
14975;SDS011;7584;60.468;25.126;2023-04-25T01:40:03;2.43;;;1.97;;
14975;SDS011;7584;60.468;25.126;2023-04-25T01:42:30;3.17;;;1.90;;
14975;SDS011;7584;60.468;25.126;2023-04-25T01:44:55;2.23;;;1.50;;
14975;SDS011;7584;60.468;25.126;2023-04-25T01:47:21;2.07;;;1.87;;
14975;SDS011;7584;60.468;25.126;2023-04-25T01:49:46;4.13;;;1.90;;
14975;SDS011;7584;60.468;25.126;2023-04-25T01:52:11;2.30;;;2.00;;
14975;SDS011;7584;60.468;25.126;2023-04-25T01:54:36;3.53;;;2.10;;
14975;SDS011;7584;60.468;25.126;2023-04-25T01:57:02;6.13;;;2.50;;
14975;SDS011;7584;60.468;25.126;2023-04-25T01:59:28;3.80;;;2.30;;
14975;SDS011;7584;60.468;25.126;2023-04-25T02:01:53;2.43;;;2.23;;
14975;SDS011;7584;60.468;25.126;2023-04-25T02:04:19;4.27;;;2.03;;
14975;SDS011;7584;60.468;25.126;2023-04-25T02:06:44;3.37;;;1.90;;
14975;SDS011;7584;60.468;25.126;2023-04-25T02:09:09;3.43;;;2.27;;
14975;SDS011;7584;60.468;25.126;2023-04-25T02:11:35;4.20;;;2.10;;
14975;SDS011;7584;60.468;25.126;2023-04-25T02:14:00;3.17;;;2.00;;
14975;SDS011;7584;60.468;25.126;2023-04-25T02:16:25;2.80;;;2.13;;
14975;SDS011;7584;60.468;25.126;2023-04-25T02:18:50;3.17;;;1.97;;
14975;SDS011;7584;60.468;25.126;2023-04-25T02:21:17;3.53;;;1.80;;
14975;SDS011;7584;60.468;25.126;2023-04-25T02:23:43;3.73;;;2.33;;
14975;SDS011;7584;60.468;25.126;2023-04-25T02:26:10;2.37;;;1.93;;
14975;SDS011;7584;60.468;25.126;2023-04-25T02:28:38;4.83;;;2.20;;
14975;SDS011;7584;60.468;25.126;2023-04-25T02:31:03;2.50;;;2.07;;
14975;SDS011;7584;60.468;25.126;2023-04-25T02:33:28;4.77;;;2.13;;
14975;SDS011;7584;60.468;25.126;2023-04-25T02:35:54;3.60;;;2.20;;
14975;SDS011;7584;60.468;25.126;2023-04-25T02:38:19;4.50;;;2.00;;
14975;SDS011;7584;60.468;25.126;2023-04-25T02:40:45;3.60;;;2.40;;
14975;SDS011;7584;60.468;25.126;2023-04-25T02:43:10;2.77;;;2.00;;
14975;SDS011;7584;60.468;25.126;2023-04-25T02:45:35;3.63;;;1.90;;
14975;SDS011;7584;60.468;25.126;2023-04-25T02:48:01;5.27;;;2.37;;
14975;SDS011;7584;60.468;25.126;2023-04-25T02:50:27;2.83;;;2.10;;
14975;SDS011;7584;60.468;25.126;2023-04-25T02:52:52;6.63;;;2.53;;
14975;SDS011;7584;60.468;25.126;2023-04-25T02:55:17;3.73;;;3.03;;
14975;SDS011;7584;60.468;25.126;2023-04-25T02:57:43;2.97;;;2.40;;
14975;SDS011;7584;60.468;25.126;2023-04-25T03:00:08;4.63;;;2.57;;
14975;SDS011;7584;60.468;25.126;2023-04-25T03:02:33;8.30;;;2.20;;
14975;SDS011;7584;60.468;25.126;2023-04-25T03:04:59;6.27;;;2.87;;
14975;SDS011;7584;60.468;25.126;2023-04-25T03:07:24;3.90;;;2.30;;
14975;SDS011;7584;60.468;25.126;2023-04-25T03:09:49;4.87;;;2.33;;
14975;SDS011;7584;60.468;25.126;2023-04-25T03:12:15;3.37;;;2.60;;
14975;SDS011;7584;60.468;25.126;2023-04-25T03:14:40;3.97;;;2.87;;
14975;SDS011;7584;60.468;25.126;2023-04-25T03:17:06;4.53;;;2.80;;
14975;SDS011;7584;60.468;25.126;2023-04-25T03:19:31;4.40;;;2.73;;
14975;SDS011;7584;60.468;25.126;2023-04-25T03:21:56;4.23;;;3.07;;
14975;SDS011;7584;60.468;25.126;2023-04-25T03:24:21;3.83;;;2.90;;
14975;SDS011;7584;60.468;25.126;2023-04-25T03:26:47;6.63;;;3.20;;
14975;SDS011;7584;60.468;25.126;2023-04-25T03:29:12;3.50;;;2.77;;
14975;SDS011;7584;60.468;25.126;2023-04-25T03:31:37;4.30;;;3.00;;
14975;SDS011;7584;60.468;25.126;2023-04-25T03:34:03;3.87;;;2.70;;
14975;SDS011;7584;60.468;25.126;2023-04-25T03:36:28;5.43;;;3.00;;
14975;SDS011;7584;60.468;25.126;2023-04-25T03:38:53;4.17;;;3.03;;
14975;SDS011;7584;60.468;25.126;2023-04-25T03:41:20;3.13;;;2.60;;
14975;SDS011;7584;60.468;25.126;2023-04-25T03:43:45;5.17;;;2.50;;
14975;SDS011;7584;60.468;25.126;2023-04-25T03:46:10;3.33;;;1.83;;
14975;SDS011;7584;60.468;25.126;2023-04-25T03:48:35;4.37;;;2.60;;
14975;SDS011;7584;60.468;25.126;2023-04-25T03:51:01;2.77;;;2.20;;
14975;SDS011;7584;60.468;25.126;2023-04-25T03:53:26;3.07;;;2.50;;
14975;SDS011;7584;60.468;25.126;2023-04-25T03:55:51;2.67;;;2.47;;
14975;SDS011;7584;60.468;25.126;2023-04-25T03:58:16;3.17;;;2.13;;
14975;SDS011;7584;60.468;25.126;2023-04-25T04:00:42;3.70;;;2.00;;
14975;SDS011;7584;60.468;25.126;2023-04-25T04:03:07;2.90;;;2.20;;
14975;SDS011;7584;60.468;25.126;2023-04-25T04:05:32;3.30;;;2.20;;
14975;SDS011;7584;60.468;25.126;2023-04-25T04:07:58;1.77;;;1.53;;
14975;SDS011;7584;60.468;25.126;2023-04-25T04:10:23;2.27;;;1.93;;
14975;SDS011;7584;60.468;25.126;2023-04-25T04:12:48;3.47;;;2.10;;
14975;SDS011;7584;60.468;25.126;2023-04-25T04:15:14;3.50;;;1.90;;
14975;SDS011;7584;60.468;25.126;2023-04-25T04:17:39;2.67;;;2.10;;
14975;SDS011;7584;60.468;25.126;2023-04-25T04:20:05;3.43;;;1.70;;
14975;SDS011;7584;60.468;25.126;2023-04-25T04:22:31;3.33;;;1.83;;
14975;SDS011;7584;60.468;25.126;2023-04-25T04:24:56;2.20;;;2.00;;
14975;SDS011;7584;60.468;25.126;2023-04-25T04:27:22;2.97;;;2.10;;
14975;SDS011;7584;60.468;25.126;2023-04-25T04:29:47;2.67;;;2.10;;
14975;SDS011;7584;60.468;25.126;2023-04-25T04:32:13;3.47;;;2.30;;
14975;SDS011;7584;60.468;25.126;2023-04-25T04:34:38;3.77;;;1.90;;
14975;SDS011;7584;60.468;25.126;2023-04-25T04:37:04;2.80;;;1.50;;
14975;SDS011;7584;60.468;25.126;2023-04-25T04:39:30;1.60;;;1.50;;
14975;SDS011;7584;60.468;25.126;2023-04-25T04:41:55;2.40;;;1.70;;
14975;SDS011;7584;60.468;25.126;2023-04-25T04:44:20;2.50;;;1.50;;
14975;SDS011;7584;60.468;25.126;2023-04-25T04:46:46;2.50;;;1.97;;
14975;SDS011;7584;60.468;25.126;2023-04-25T04:49:11;1.80;;;1.70;;
14975;SDS011;7584;60.468;25.126;2023-04-25T04:51:38;2.90;;;1.77;;
14975;SDS011;7584;60.468;25.126;2023-04-25T04:54:04;2.73;;;1.87;;
14975;SDS011;7584;60.468;25.126;2023-04-25T04:56:29;2.03;;;1.80;;
14975;SDS011;7584;60.468;25.126;2023-04-25T04:58:56;2.50;;;1.93;;
14975;SDS011;7584;60.468;25.126;2023-04-25T05:01:21;2.90;;;1.90;;
14975;SDS011;7584;60.468;25.126;2023-04-25T05:03:47;3.70;;;1.63;;
14975;SDS011;7584;60.468;25.126;2023-04-25T05:06:12;3.30;;;1.87;;
14975;SDS011;7584;60.468;25.126;2023-04-25T05:08:37;2.00;;;1.80;;
14975;SDS011;7584;60.468;25.126;2023-04-25T05:11:03;2.10;;;1.90;;
14975;SDS011;7584;60.468;25.126;2023-04-25T05:13:28;3.77;;;2.60;;
14975;SDS011;7584;60.468;25.126;2023-04-25T05:15:53;2.50;;;2.30;;
14975;SDS011;7584;60.468;25.126;2023-04-25T05:18:18;2.60;;;2.20;;
14975;SDS011;7584;60.468;25.126;2023-04-25T05:20:44;2.30;;;2.10;;
14975;SDS011;7584;60.468;25.126;2023-04-25T05:23:09;2.53;;;2.33;;
14975;SDS011;7584;60.468;25.126;2023-04-25T05:25:34;4.03;;;2.47;;
14975;SDS011;7584;60.468;25.126;2023-04-25T05:28:00;4.90;;;2.70;;
14975;SDS011;7584;60.468;25.126;2023-04-25T05:30:25;2.30;;;2.10;;
14975;SDS011;7584;60.468;25.126;2023-04-25T05:32:50;2.67;;;2.47;;
14975;SDS011;7584;60.468;25.126;2023-04-25T05:35:16;2.90;;;2.60;;
14975;SDS011;7584;60.468;25.126;2023-04-25T05:37:41;2.93;;;2.40;;
14975;SDS011;7584;60.468;25.126;2023-04-25T05:40:07;3.40;;;2.60;;
14975;SDS011;7584;60.468;25.126;2023-04-25T05:42:33;3.50;;;3.10;;
14975;SDS011;7584;60.468;25.126;2023-04-25T05:44:58;2.77;;;2.37;;
14975;SDS011;7584;60.468;25.126;2023-04-25T05:47:23;3.03;;;2.73;;
14975;SDS011;7584;60.468;25.126;2023-04-25T05:49:48;4.30;;;2.77;;
14975;SDS011;7584;60.468;25.126;2023-04-25T05:52:14;3.27;;;2.90;;
14975;SDS011;7584;60.468;25.126;2023-04-25T05:54:40;4.30;;;3.27;;
14975;SDS011;7584;60.468;25.126;2023-04-25T05:57:06;6.83;;;3.03;;
14975;SDS011;7584;60.468;25.126;2023-04-25T05:59:31;4.13;;;3.20;;
14975;SDS011;7584;60.468;25.126;2023-04-25T06:01:56;4.20;;;3.53;;
14975;SDS011;7584;60.468;25.126;2023-04-25T06:04:22;3.87;;;3.40;;
14975;SDS011;7584;60.468;25.126;2023-04-25T06:06:47;4.57;;;3.53;;
14975;SDS011;7584;60.468;25.126;2023-04-25T06:09:12;3.87;;;3.40;;
14975;SDS011;7584;60.468;25.126;2023-04-25T06:11:37;4.40;;;3.83;;
14975;SDS011;7584;60.468;25.126;2023-04-25T06:14:03;4.83;;;3.73;;
14975;SDS011;7584;60.468;25.126;2023-04-25T06:16:28;5.00;;;3.87;;
14975;SDS011;7584;60.468;25.126;2023-04-25T06:18:53;3.90;;;3.60;;
14975;SDS011;7584;60.468;25.126;2023-04-25T06:21:19;6.90;;;4.60;;
14975;SDS011;7584;60.468;25.126;2023-04-25T06:23:44;6.27;;;4.20;;
14975;SDS011;7584;60.468;25.126;2023-04-25T06:26:09;5.23;;;4.60;;
14975;SDS011;7584;60.468;25.126;2023-04-25T06:28:35;6.03;;;4.77;;
14975;SDS011;7584;60.468;25.126;2023-04-25T06:31:00;7.27;;;4.97;;
14975;SDS011;7584;60.468;25.126;2023-04-25T06:33:25;7.90;;;5.50;;
14975;SDS011;7584;60.468;25.126;2023-04-25T06:35:51;7.73;;;5.43;;
14975;SDS011;7584;60.468;25.126;2023-04-25T06:38:17;9.23;;;6.03;;
14975;SDS011;7584;60.468;25.126;2023-04-25T06:40:42;7.00;;;5.83;;
14975;SDS011;7584;60.468;25.126;2023-04-25T06:43:07;8.17;;;6.53;;
14975;SDS011;7584;60.468;25.126;2023-04-25T06:45:32;7.80;;;5.97;;
14975;SDS011;7584;60.468;25.126;2023-04-25T06:47:58;6.23;;;5.57;;
14975;SDS011;7584;60.468;25.126;2023-04-25T06:50:23;6.17;;;5.57;;
14975;SDS011;7584;60.468;25.126;2023-04-25T06:52:48;7.93;;;5.77;;
14975;SDS011;7584;60.468;25.126;2023-04-25T06:55:14;8.13;;;5.80;;
14975;SDS011;7584;60.468;25.126;2023-04-25T06:57:39;6.73;;;5.60;;
14975;SDS011;7584;60.468;25.126;2023-04-25T07:00:05;7.87;;;6.40;;
14975;SDS011;7584;60.468;25.126;2023-04-25T07:02:33;8.73;;;6.10;;
14975;SDS011;7584;60.468;25.126;2023-04-25T07:04:59;11.57;;;6.97;;
14975;SDS011;7584;60.468;25.126;2023-04-25T07:07:25;10.90;;;6.80;;
14975;SDS011;7584;60.468;25.126;2023-04-25T07:09:50;7.73;;;6.30;;
14975;SDS011;7584;60.468;25.126;2023-04-25T07:12:15;8.67;;;7.07;;
14975;SDS011;7584;60.468;25.126;2023-04-25T07:14:41;7.87;;;5.73;;
14975;SDS011;7584;60.468;25.126;2023-04-25T07:17:06;7.30;;;6.20;;
14975;SDS011;7584;60.468;25.126;2023-04-25T07:19:32;6.10;;;5.50;;
14975;SDS011;7584;60.468;25.126;2023-04-25T07:21:58;8.87;;;6.00;;
14975;SDS011;7584;60.468;25.126;2023-04-25T07:24:23;8.60;;;6.43;;
14975;SDS011;7584;60.468;25.126;2023-04-25T07:26:48;6.17;;;5.60;;
14975;SDS011;7584;60.468;25.126;2023-04-25T07:29:14;8.40;;;6.27;;
14975;SDS011;7584;60.468;25.126;2023-04-25T07:31:39;8.13;;;6.53;;
14975;SDS011;7584;60.468;25.126;2023-04-25T07:34:04;7.97;;;6.13;;
14975;SDS011;7584;60.468;25.126;2023-04-25T07:36:30;6.60;;;6.00;;
14975;SDS011;7584;60.468;25.126;2023-04-25T07:38:56;8.73;;;6.53;;
14975;SDS011;7584;60.468;25.126;2023-04-25T07:41:21;7.90;;;6.50;;
14975;SDS011;7584;60.468;25.126;2023-04-25T07:43:46;7.50;;;6.27;;
14975;SDS011;7584;60.468;25.126;2023-04-25T07:46:12;10.00;;;7.20;;
14975;SDS011;7584;60.468;25.126;2023-04-25T07:48:37;7.60;;;6.73;;
14975;SDS011;7584;60.468;25.126;2023-04-25T07:51:02;7.10;;;6.00;;
14975;SDS011;7584;60.468;25.126;2023-04-25T07:53:29;7.93;;;5.73;;
14975;SDS011;7584;60.468;25.126;2023-04-25T07:55:55;7.80;;;6.23;;
14975;SDS011;7584;60.468;25.126;2023-04-25T07:58:20;8.77;;;6.83;;
14975;SDS011;7584;60.468;25.126;2023-04-25T08:00:46;9.87;;;5.80;;
14975;SDS011;7584;60.468;25.126;2023-04-25T08:03:11;11.53;;;6.57;;
14975;SDS011;7584;60.468;25.126;2023-04-25T08:05:37;9.03;;;6.20;;
14975;SDS011;7584;60.468;25.126;2023-04-25T08:08:02;7.67;;;6.00;;
14975;SDS011;7584;60.468;25.126;2023-04-25T08:10:27;11.93;;;6.07;;
14975;SDS011;7584;60.468;25.126;2023-04-25T08:12:53;7.63;;;5.53;;
14975;SDS011;7584;60.468;25.126;2023-04-25T08:15:18;8.80;;;5.50;;
14975;SDS011;7584;60.468;25.126;2023-04-25T08:17:44;9.17;;;6.20;;
14975;SDS011;7584;60.468;25.126;2023-04-25T08:20:09;9.13;;;5.50;;
14975;SDS011;7584;60.468;25.126;2023-04-25T08:22:35;6.77;;;6.00;;
14975;SDS011;7584;60.468;25.126;2023-04-25T08:25:01;6.65;;;5.38;;
14975;SDS011;7584;60.468;25.126;2023-04-25T08:27:26;6.50;;;5.55;;
14975;SDS011;7584;60.468;25.126;2023-04-25T08:29:51;9.35;;;5.47;;
14975;SDS011;7584;60.468;25.126;2023-04-25T08:32:17;6.97;;;5.57;;
14975;SDS011;7584;60.468;25.126;2023-04-25T08:34:42;7.47;;;4.55;;
14975;SDS011;7584;60.468;25.126;2023-04-25T08:37:09;6.38;;;4.63;;
14975;SDS011;7584;60.468;25.126;2023-04-25T08:39:35;5.93;;;4.70;;
14975;SDS011;7584;60.468;25.126;2023-04-25T08:42:00;6.47;;;5.18;;
14975;SDS011;7584;60.468;25.126;2023-04-25T08:44:28;6.07;;;4.80;;
14975;SDS011;7584;60.468;25.126;2023-04-25T08:46:55;6.72;;;5.00;;
14975;SDS011;7584;60.468;25.126;2023-04-25T08:49:20;6.35;;;4.78;;
14975;SDS011;7584;60.468;25.126;2023-04-25T08:51:46;7.22;;;5.43;;
14975;SDS011;7584;60.468;25.126;2023-04-25T08:54:12;7.13;;;4.93;;
14975;SDS011;7584;60.468;25.126;2023-04-25T08:56:41;6.68;;;4.47;;
14975;SDS011;7584;60.468;25.126;2023-04-25T08:59:09;5.63;;;4.55;;
14975;SDS011;7584;60.468;25.126;2023-04-25T09:01:35;5.43;;;4.32;;
14975;SDS011;7584;60.468;25.126;2023-04-25T09:04:00;6.32;;;4.35;;
14975;SDS011;7584;60.468;25.126;2023-04-25T09:06:26;6.40;;;4.57;;
14975;SDS011;7584;60.468;25.126;2023-04-25T09:08:52;7.05;;;4.55;;
14975;SDS011;7584;60.468;25.126;2023-04-25T09:11:18;6.95;;;4.55;;
14975;SDS011;7584;60.468;25.126;2023-04-25T09:13:44;8.18;;;4.70;;
14975;SDS011;7584;60.468;25.126;2023-04-25T09:16:10;6.85;;;4.20;;
14975;SDS011;7584;60.468;25.126;2023-04-25T09:18:35;7.05;;;4.55;;
14975;SDS011;7584;60.468;25.126;2023-04-25T09:21:06;8.93;;;4.50;;
14975;SDS011;7584;60.468;25.126;2023-04-25T09:23:38;8.88;;;4.43;;
14975;SDS011;7584;60.468;25.126;2023-04-25T09:26:03;5.78;;;5.00;;
14975;SDS011;7584;60.468;25.126;2023-04-25T09:28:31;6.45;;;5.15;;
14975;SDS011;7584;60.468;25.126;2023-04-25T09:30:56;7.15;;;4.85;;
14975;SDS011;7584;60.468;25.126;2023-04-25T09:33:26;8.90;;;5.07;;
14975;SDS011;7584;60.468;25.126;2023-04-25T09:35:52;7.85;;;4.75;;
14975;SDS011;7584;60.468;25.126;2023-04-25T09:38:20;5.10;;;4.60;;
14975;SDS011;7584;60.468;25.126;2023-04-25T09:40:46;5.10;;;4.30;;
14975;SDS011;7584;60.468;25.126;2023-04-25T09:45:41;6.18;;;4.35;;
14975;SDS011;7584;60.468;25.126;2023-04-25T09:48:10;5.90;;;4.38;;
14975;SDS011;7584;60.468;25.126;2023-04-25T09:50:35;4.47;;;3.65;;
14975;SDS011;7584;60.468;25.126;2023-04-25T09:53:04;6.45;;;4.10;;
14975;SDS011;7584;60.468;25.126;2023-04-25T09:55:31;7.05;;;3.85;;
14975;SDS011;7584;60.468;25.126;2023-04-25T09:57:57;5.22;;;3.50;;
14975;SDS011;7584;60.468;25.126;2023-04-25T10:00:26;5.70;;;3.72;;
14975;SDS011;7584;60.468;25.126;2023-04-25T10:02:52;7.90;;;3.78;;
14975;SDS011;7584;60.468;25.126;2023-04-25T10:05:18;5.13;;;3.90;;
14975;SDS011;7584;60.468;25.126;2023-04-25T10:07:43;5.32;;;3.72;;
14975;SDS011;7584;60.468;25.126;2023-04-25T10:10:09;5.20;;;3.10;;
14975;SDS011;7584;60.468;25.126;2023-04-25T10:12:37;3.60;;;3.17;;
14975;SDS011;7584;60.468;25.126;2023-04-25T10:15:04;6.93;;;3.47;;
14975;SDS011;7584;60.468;25.126;2023-04-25T10:17:30;4.80;;;3.33;;
14975;SDS011;7584;60.468;25.126;2023-04-25T10:19:56;7.43;;;3.08;;
14975;SDS011;7584;60.468;25.126;2023-04-25T10:22:35;5.45;;;3.03;;
14975;SDS011;7584;60.468;25.126;2023-04-25T10:25:01;5.03;;;2.65;;
14975;SDS011;7584;60.468;25.126;2023-04-25T10:27:29;6.50;;;3.17;;
14975;SDS011;7584;60.468;25.126;2023-04-25T10:30:27;5.53;;;2.67;;
14975;SDS011;7584;60.468;25.126;2023-04-25T10:32:46;5.75;;;3.10;;
14975;SDS011;7584;60.468;25.126;2023-04-25T10:35:15;7.55;;;2.90;;
14975;SDS011;7584;60.468;25.126;2023-04-25T10:40:22;4.10;;;2.90;;
14975;SDS011;7584;60.468;25.126;2023-04-25T10:42:48;3.78;;;2.67;;
14975;SDS011;7584;60.468;25.126;2023-04-25T10:45:13;3.25;;;2.65;;
14975;SDS011;7584;60.468;25.126;2023-04-25T10:47:43;3.75;;;2.70;;
14975;SDS011;7584;60.468;25.126;2023-04-25T10:50:09;4.85;;;2.70;;
14975;SDS011;7584;60.468;25.126;2023-04-25T10:52:34;4.88;;;2.90;;
14975;SDS011;7584;60.468;25.126;2023-04-25T10:55:00;3.05;;;2.65;;
14975;SDS011;7584;60.468;25.126;2023-04-25T10:57:31;6.40;;;2.88;;
14975;SDS011;7584;60.468;25.126;2023-04-25T11:00:01;4.53;;;3.30;;
14975;SDS011;7584;60.468;25.126;2023-04-25T11:02:40;2.42;;;2.22;;
14975;SDS011;7584;60.468;25.126;2023-04-25T11:05:06;4.53;;;2.55;;
14975;SDS011;7584;60.468;25.126;2023-04-25T11:09:56;4.28;;;2.60;;
14975;SDS011;7584;60.468;25.126;2023-04-25T11:12:22;5.05;;;2.67;;
14975;SDS011;7584;60.468;25.126;2023-04-25T11:14:49;7.35;;;2.70;;
14975;SDS011;7584;60.468;25.126;2023-04-25T11:17:15;4.97;;;2.83;;
14975;SDS011;7584;60.468;25.126;2023-04-25T11:19:40;4.07;;;2.30;;
14975;SDS011;7584;60.468;25.126;2023-04-25T11:22:05;2.75;;;2.42;;
14975;SDS011;7584;60.468;25.126;2023-04-25T11:24:33;3.08;;;2.72;;
14975;SDS011;7584;60.468;25.126;2023-04-25T11:26:59;5.13;;;2.72;;
14975;SDS011;7584;60.468;25.126;2023-04-25T11:29:27;4.45;;;2.95;;
14975;SDS011;7584;60.468;25.126;2023-04-25T11:31:53;9.73;;;2.75;;
14975;SDS011;7584;60.468;25.126;2023-04-25T11:34:20;4.95;;;2.72;;
14975;SDS011;7584;60.468;25.126;2023-04-25T11:36:46;3.47;;;2.60;;
14975;SDS011;7584;60.468;25.126;2023-04-25T11:39:11;3.53;;;2.67;;
14975;SDS011;7584;60.468;25.126;2023-04-25T11:41:37;7.70;;;2.67;;
14975;SDS011;7584;60.468;25.126;2023-04-25T11:44:02;6.70;;;2.85;;
14975;SDS011;7584;60.468;25.126;2023-04-25T11:46:28;5.03;;;2.72;;
14975;SDS011;7584;60.468;25.126;2023-04-25T11:48:53;5.28;;;2.70;;
14975;SDS011;7584;60.468;25.126;2023-04-25T11:51:20;5.57;;;2.42;;
14975;SDS011;7584;60.468;25.126;2023-04-25T11:53:46;5.32;;;2.35;;
14975;SDS011;7584;60.468;25.126;2023-04-25T11:56:12;4.78;;;2.35;;
14975;SDS011;7584;60.468;25.126;2023-04-25T11:58:53;3.85;;;2.40;;
14975;SDS011;7584;60.468;25.126;2023-04-25T12:01:26;5.38;;;2.35;;
14975;SDS011;7584;60.468;25.126;2023-04-25T12:03:51;2.53;;;2.03;;
14975;SDS011;7584;60.468;25.126;2023-04-25T12:06:17;3.70;;;1.98;;
14975;SDS011;7584;60.468;25.126;2023-04-25T12:08:58;4.28;;;2.25;;
14975;SDS011;7584;60.468;25.126;2023-04-25T12:11:23;6.38;;;2.50;;
14975;SDS011;7584;60.468;25.126;2023-04-25T12:13:51;4.60;;;2.80;;
14975;SDS011;7584;60.468;25.126;2023-04-25T12:16:17;8.52;;;2.50;;
14975;SDS011;7584;60.468;25.126;2023-04-25T12:18:42;6.68;;;2.42;;
14975;SDS011;7584;60.468;25.126;2023-04-25T12:21:07;23.60;;;3.90;;
14975;SDS011;7584;60.468;25.126;2023-04-25T12:23:34;4.20;;;2.65;;
14975;SDS011;7584;60.468;25.126;2023-04-25T12:26:03;5.00;;;2.50;;
14975;SDS011;7584;60.468;25.126;2023-04-25T12:28:28;4.90;;;2.67;;
14975;SDS011;7584;60.468;25.126;2023-04-25T12:33:24;4.07;;;2.53;;
14975;SDS011;7584;60.468;25.126;2023-04-25T12:35:49;8.25;;;2.92;;
14975;SDS011;7584;60.468;25.126;2023-04-25T12:38:30;3.83;;;2.45;;
14975;SDS011;7584;60.468;25.126;2023-04-25T12:40:59;4.25;;;2.72;;
14975;SDS011;7584;60.468;25.126;2023-04-25T12:43:24;4.30;;;2.53;;
14975;SDS011;7584;60.468;25.126;2023-04-25T12:45:51;6.75;;;2.75;;
14975;SDS011;7584;60.468;25.126;2023-04-25T12:48:17;5.47;;;2.60;;
14975;SDS011;7584;60.468;25.126;2023-04-25T12:50:42;4.93;;;2.53;;
14975;SDS011;7584;60.468;25.126;2023-04-25T12:53:08;5.15;;;2.80;;
14975;SDS011;7584;60.468;25.126;2023-04-25T12:55:33;4.93;;;2.60;;
14975;SDS011;7584;60.468;25.126;2023-04-25T12:57:59;5.40;;;2.50;;
14975;SDS011;7584;60.468;25.126;2023-04-25T13:00:24;5.32;;;2.65;;
14975;SDS011;7584;60.468;25.126;2023-04-25T13:02:49;4.18;;;2.55;;
14975;SDS011;7584;60.468;25.126;2023-04-25T13:05:15;4.95;;;2.40;;
14975;SDS011;7584;60.468;25.126;2023-04-25T13:07:40;4.80;;;2.60;;
14975;SDS011;7584;60.468;25.126;2023-04-25T13:10:06;4.75;;;2.70;;
14975;SDS011;7584;60.468;25.126;2023-04-25T13:12:31;4.85;;;2.72;;
14975;SDS011;7584;60.468;25.126;2023-04-25T13:14:57;4.55;;;2.42;;
14975;SDS011;7584;60.468;25.126;2023-04-25T13:17:22;7.55;;;2.60;;
14975;SDS011;7584;60.468;25.126;2023-04-25T13:19:47;3.60;;;2.03;;
14975;SDS011;7584;60.468;25.126;2023-04-25T13:22:13;6.13;;;2.63;;
14975;SDS011;7584;60.468;25.126;2023-04-25T13:24:40;4.75;;;2.65;;
14975;SDS011;7584;60.468;25.126;2023-04-25T13:27:05;3.08;;;2.40;;
14975;SDS011;7584;60.468;25.126;2023-04-25T13:29:31;3.13;;;2.58;;
14975;SDS011;7584;60.468;25.126;2023-04-25T13:31:56;7.80;;;2.90;;
14975;SDS011;7584;60.468;25.126;2023-04-25T13:34:21;4.93;;;2.13;;
14975;SDS011;7584;60.468;25.126;2023-04-25T13:36:47;5.72;;;2.78;;
14975;SDS011;7584;60.468;25.126;2023-04-25T13:39:12;4.63;;;2.80;;
14975;SDS011;7584;60.468;25.126;2023-04-25T13:41:38;3.83;;;2.25;;
14975;SDS011;7584;60.468;25.126;2023-04-25T13:44:03;11.73;;;2.70;;
14975;SDS011;7584;60.468;25.126;2023-04-25T13:46:29;4.78;;;2.25;;
14975;SDS011;7584;60.468;25.126;2023-04-25T13:48:54;6.30;;;2.60;;
14975;SDS011;7584;60.468;25.126;2023-04-25T13:51:19;4.82;;;2.63;;
14975;SDS011;7584;60.468;25.126;2023-04-25T13:53:45;4.63;;;2.45;;
14975;SDS011;7584;60.468;25.126;2023-04-25T13:56:10;3.58;;;2.58;;
14975;SDS011;7584;60.468;25.126;2023-04-25T13:58:36;5.20;;;2.72;;
14975;SDS011;7584;60.468;25.126;2023-04-25T14:01:01;4.45;;;2.42;;
14975;SDS011;7584;60.468;25.126;2023-04-25T14:03:28;3.78;;;2.60;;
14975;SDS011;7584;60.468;25.126;2023-04-25T14:05:53;2.70;;;2.10;;
14975;SDS011;7584;60.468;25.126;2023-04-25T14:08:18;3.50;;;2.25;;
14975;SDS011;7584;60.468;25.126;2023-04-25T14:10:45;4.90;;;2.45;;
14975;SDS011;7584;60.468;25.126;2023-04-25T14:13:10;7.13;;;2.50;;
14975;SDS011;7584;60.468;25.126;2023-04-25T14:15:36;4.78;;;2.55;;
14975;SDS011;7584;60.468;25.126;2023-04-25T14:18:01;4.65;;;2.50;;
14975;SDS011;7584;60.468;25.126;2023-04-25T14:20:27;4.10;;;2.00;;
14975;SDS011;7584;60.468;25.126;2023-04-25T14:22:52;7.28;;;2.38;;
14975;SDS011;7584;60.468;25.126;2023-04-25T14:25:19;4.78;;;2.00;;
14975;SDS011;7584;60.468;25.126;2023-04-25T14:27:44;6.30;;;2.28;;
14975;SDS011;7584;60.468;25.126;2023-04-25T14:30:14;8.40;;;2.20;;
14975;SDS011;7584;60.468;25.126;2023-04-25T14:32:39;7.40;;;2.40;;
14975;SDS011;7584;60.468;25.126;2023-04-25T14:35:05;6.10;;;2.08;;
14975;SDS011;7584;60.468;25.126;2023-04-25T14:37:30;5.50;;;2.55;;
14975;SDS011;7584;60.468;25.126;2023-04-25T14:39:56;7.75;;;2.20;;
14975;SDS011;7584;60.468;25.126;2023-04-25T14:42:21;3.30;;;2.22;;
14975;SDS011;7584;60.468;25.126;2023-04-25T14:44:47;7.22;;;2.40;;
14975;SDS011;7584;60.468;25.126;2023-04-25T14:47:12;2.83;;;1.90;;
14975;SDS011;7584;60.468;25.126;2023-04-25T14:49:37;4.05;;;1.92;;